Haven, KS

9:03 PM CDT on September 24, 2016 (GMT -0500)
hamill shop | | Change Station

Elev 1470 ft 37.85 °N, 97.68 °W | Updated 1 minute ago

Rain
Rain
67.4 °F
Feels Like 67.4 °F
N
11.0
Wind Variable Wind from SSE
Gusts 12.0 mph

Today
High -- | Low -- °F
--% Chance of Precip.
Yesterday
High -- | Low -- °F
Precip. -- in
Pressure 29.91 in
Visibility 10.0 miles
Clouds Few 10000 ft
Dew Point 66 °F
Humidity 94%
Rainfall 1.84 in
Snow Depth Not available.
7:21 AM 7:24 PM
Waning Crescent, 32% visible
METAR KHUT 250152Z 21004KT 10SM FEW100 20/19 A2997 RMK AO2 WSHFT 0112 RAE38 TSE0058 SLP128 P0001 T02000189
Pressure 29.91 in
Visibility 10.0 miles
Clouds Few 10000 ft
Dew Point 66 °F
Humidity 94%
Rainfall 1.84 in
Snow Depth Not available.
7:21 AM 7:24 PM
Waning Crescent, 32% visible
METAR KHUT 250152Z 21004KT 10SM FEW100 20/19 A2997 RMK AO2 WSHFT 0112 RAE38 TSE0058 SLP128 P0001 T02000189

10-Day Weather Forecast

Almanac

Astronomy

Sep. 24, 2016 Rise Set
Actual Time
Civil Twilight
Nautical Twilight
Astronomical Twilight
Moon
Length of Visible Light
Length of Day
Tomorrow will be .
, % of the Moon is Illuminated

Today's Extremes

State Highs State Lows

Community

WunderPhotos

Upload Photos

1,941,526 photos uploaded!

WunderBlog® & News

Nearby

Air Quality

  Air Quality AQ Index Pollutant
Not available.

Snow Depth

Station Depth Elevation

Earthquake Activity

City Distance Mag. Time & Date
Minimum magnitude displayed is 2.5.

Coastal Water Temperatures

Place Temperature

Stations

Nearby Weather Stations

Station Location Temp. Windchill Dew Point Humidity Wind Precip. Elev Updated Type
                   

Watches & Warnings

There are currently no watches in effect.